createdAt,value
2023-12-22T00:23:19.524Z,4
2023-12-22T00:52:12.343Z,4
2023-12-22T01:21:03.810Z,3
2023-12-22T01:49:55.589Z,4
2023-12-22T02:18:50.514Z,4
2023-12-22T02:47:33.541Z,6
2023-12-22T03:16:25.160Z,6
2023-12-22T03:45:16.647Z,4
2023-12-22T04:14:10.069Z,6
2023-12-22T04:43:07.671Z,6
2023-12-22T05:11:45.592Z,6
2023-12-22T05:40:35.717Z,7
2023-12-22T06:09:26.833Z,6
2023-12-22T06:38:12.433Z,10
2023-12-22T07:07:00.769Z,9
2023-12-22T07:35:36.490Z,7
2023-12-22T08:04:06.336Z,7
2023-12-22T08:32:27.945Z,9
2023-12-22T09:00:46.240Z,10
2023-12-22T09:29:17.308Z,12
2023-12-22T09:57:50.863Z,10
2023-12-22T10:26:16.274Z,9
2023-12-22T10:54:46.031Z,7
2023-12-22T11:23:16.552Z,10
2023-12-22T11:51:53.550Z,7
2023-12-22T12:20:34.561Z,6
2023-12-22T12:48:57.492Z,4
2023-12-22T13:17:40.606Z,4
2023-12-22T13:45:56.752Z,3
2023-12-22T14:14:39.928Z,7
2023-12-22T14:43:23.760Z,6
2023-12-22T15:12:05.461Z,4
2023-12-22T15:40:37.025Z,3
2023-12-22T16:09:00.334Z,3
2023-12-22T16:37:43.320Z,4
2023-12-22T17:06:02.949Z,3
2023-12-22T17:34:27.558Z,10
2023-12-22T18:03:11.966Z,3
2023-12-22T18:31:56.427Z,3
2023-12-22T19:00:26.263Z,4
2023-12-22T19:29:00.789Z,3
2023-12-22T19:57:39.704Z,3
2023-12-22T20:26:10.505Z,5
2023-12-22T20:54:50.294Z,5
2023-12-22T21:23:21.771Z,4
2023-12-22T21:51:50.743Z,4
2023-12-22T22:20:16.673Z,3
2023-12-22T22:48:37.637Z,3
2023-12-22T23:17:21.704Z,3
2023-12-22T23:45:57.176Z,3
